FIMP

Sir Seewoosagur Ramgoolam International Airport

Port Louis, Mauritius
METAR FIMP 202000Z 09013KT 9999 VCSH SCT014 BKN050 22/18 Q1024
Observed Flight Rules
Aug-20 @ 20:00 UTC (29 minutes ago) Visual Flight Rules
Wind Visibility Clouds
90° at 13 knots 10,000+ meters
  • Scattered at 1,400' AGL
  • Broken at 5,000' AGL
Temperatures Readings
Current 22°C / 72°F
Dewpoint 18°C / 64°F
Humidity 78%
Altimeter 30.24" Hg
Pressure 1024 hPa
Elevation 57
METAR FIMP 202000Z 09013KT 9999 VCSH SCT014 BKN050 22/18 Q1024
Observed Flight Rules
Aug-20 @ 20:00 UTC
(29 minutes ago)
VFR
Wind Visibility
90° at 13 knots 10,000+ meters
Clouds
  • Scattered at 1,400' AGL
  • Broken at 5,000' AGL
Temperature Dewpoint
22°C / 72°F 18°C / 64°F
Humidity Altimeter Pressure
78% 30.24" Hg 1024 hPa